sensor_id;sensor_type;location;lat;lon;timestamp;pressure;altitude;pressure_sealevel;temperature;humidity
6500;BME280;3283;52.330;9.772;2022-08-21T00:00:40;100908.53;;;17.47;100.00
6500;BME280;3283;52.330;9.772;2022-08-21T00:03:08;100901.75;;;17.39;100.00
6500;BME280;3283;52.330;9.772;2022-08-21T00:05:36;100896.78;;;17.29;100.00
6500;BME280;3283;52.330;9.772;2022-08-21T00:08:03;100893.13;;;17.32;100.00
6500;BME280;3283;52.330;9.772;2022-08-21T00:10:28;100885.22;;;17.30;100.00
6500;BME280;3283;52.330;9.772;2022-08-21T00:12:54;100892.25;;;17.32;100.00
6500;BME280;3283;52.330;9.772;2022-08-21T00:15:25;100893.06;;;17.34;100.00
6500;BME280;3283;52.330;9.772;2022-08-21T00:17:52;100880.59;;;17.36;100.00
6500;BME280;3283;52.330;9.772;2022-08-21T00:20:19;100883.06;;;17.40;100.00
6500;BME280;3283;52.330;9.772;2022-08-21T00:22:45;100887.44;;;17.43;100.00
6500;BME280;3283;52.330;9.772;2022-08-21T00:25:11;100885.47;;;17.48;100.00
6500;BME280;3283;52.330;9.772;2022-08-21T00:27:37;100890.88;;;17.45;100.00
6500;BME280;3283;52.330;9.772;2022-08-21T00:30:04;100879.81;;;17.32;100.00
6500;BME280;3283;52.330;9.772;2022-08-21T00:32:30;100888.09;;;17.24;100.00
6500;BME280;3283;52.330;9.772;2022-08-21T00:34:55;100887.81;;;17.32;100.00
6500;BME280;3283;52.330;9.772;2022-08-21T00:37:21;100888.63;;;17.34;100.00
6500;BME280;3283;52.330;9.772;2022-08-21T00:39:47;100888.00;;;17.27;100.00
6500;BME280;3283;52.330;9.772;2022-08-21T00:42:13;100892.66;;;17.21;100.00
6500;BME280;3283;52.330;9.772;2022-08-21T00:44:44;100894.41;;;17.22;100.00
6500;BME280;3283;52.330;9.772;2022-08-21T00:47:11;100897.28;;;17.16;100.00
6500;BME280;3283;52.330;9.772;2022-08-21T00:49:38;100894.72;;;17.13;100.00
6500;BME280;3283;52.330;9.772;2022-08-21T00:52:07;100889.28;;;17.16;100.00
6500;BME280;3283;52.330;9.772;2022-08-21T00:54:34;100885.69;;;17.17;100.00
6500;BME280;3283;52.330;9.772;2022-08-21T00:57:07;100896.25;;;17.20;100.00
6500;BME280;3283;52.330;9.772;2022-08-21T00:59:37;100901.88;;;17.11;100.00
6500;BME280;3283;52.330;9.772;2022-08-21T01:02:05;100893.38;;;17.01;100.00
6500;BME280;3283;52.330;9.772;2022-08-21T01:04:32;100898.75;;;16.99;100.00
6500;BME280;3283;52.330;9.772;2022-08-21T01:06:57;100890.91;;;16.95;100.00
6500;BME280;3283;52.330;9.772;2022-08-21T01:09:23;100891.72;;;16.97;100.00
6500;BME280;3283;52.330;9.772;2022-08-21T01:11:49;100894.38;;;16.97;100.00
6500;BME280;3283;52.330;9.772;2022-08-21T01:14:15;100900.63;;;16.96;100.00
6500;BME280;3283;52.330;9.772;2022-08-21T01:16:45;100903.81;;;16.81;100.00
6500;BME280;3283;52.330;9.772;2022-08-21T01:19:12;100901.22;;;16.79;100.00
6500;BME280;3283;52.330;9.772;2022-08-21T01:21:37;100877.00;;;16.60;100.00
6500;BME280;3283;52.330;9.772;2022-08-21T01:24:03;100909.56;;;16.67;100.00
6500;BME280;3283;52.330;9.772;2022-08-21T01:26:32;100910.69;;;16.60;100.00
6500;BME280;3283;52.330;9.772;2022-08-21T01:31:48;100911.19;;;16.72;100.00
6500;BME280;3283;52.330;9.772;2022-08-21T01:34:14;100907.53;;;16.75;100.00
6500;BME280;3283;52.330;9.772;2022-08-21T01:36:42;100884.78;;;16.66;100.00
6500;BME280;3283;52.330;9.772;2022-08-21T01:39:07;100905.66;;;16.79;100.00
6500;BME280;3283;52.330;9.772;2022-08-21T01:41:33;100904.81;;;16.78;100.00
6500;BME280;3283;52.330;9.772;2022-08-21T01:43:58;100901.22;;;16.79;100.00
6500;BME280;3283;52.330;9.772;2022-08-21T01:46:24;100894.44;;;16.70;100.00
6500;BME280;3283;52.330;9.772;2022-08-21T01:48:50;100899.00;;;16.65;100.00
6500;BME280;3283;52.330;9.772;2022-08-21T01:51:17;100895.06;;;16.51;100.00
6500;BME280;3283;52.330;9.772;2022-08-21T01:53:42;100896.69;;;16.55;100.00
6500;BME280;3283;52.330;9.772;2022-08-21T01:56:10;100900.97;;;16.59;100.00
6500;BME280;3283;52.330;9.772;2022-08-21T01:58:36;100892.91;;;16.62;100.00
6500;BME280;3283;52.330;9.772;2022-08-21T02:01:02;100881.47;;;16.60;100.00
6500;BME280;3283;52.330;9.772;2022-08-21T02:03:28;100884.66;;;16.71;100.00
6500;BME280;3283;52.330;9.772;2022-08-21T02:05:54;100883.75;;;16.72;100.00
6500;BME280;3283;52.330;9.772;2022-08-21T02:08:20;100883.91;;;16.66;100.00
6500;BME280;3283;52.330;9.772;2022-08-21T02:10:49;100881.25;;;16.66;100.00
6500;BME280;3283;52.330;9.772;2022-08-21T02:13:15;100886.44;;;16.69;100.00
6500;BME280;3283;52.330;9.772;2022-08-21T02:15:41;100881.31;;;16.64;100.00
6500;BME280;3283;52.330;9.772;2022-08-21T02:18:07;100876.81;;;16.66;100.00
6500;BME280;3283;52.330;9.772;2022-08-21T02:20:36;100880.28;;;16.68;100.00
6500;BME280;3283;52.330;9.772;2022-08-21T02:23:04;100876.72;;;16.69;100.00
6500;BME280;3283;52.330;9.772;2022-08-21T02:25:31;100866.22;;;16.65;100.00
6500;BME280;3283;52.330;9.772;2022-08-21T02:27:58;100870.44;;;16.72;100.00
6500;BME280;3283;52.330;9.772;2022-08-21T02:30:27;100870.50;;;16.70;100.00
6500;BME280;3283;52.330;9.772;2022-08-21T02:32:53;100860.75;;;16.71;100.00
6500;BME280;3283;52.330;9.772;2022-08-21T02:35:19;100857.16;;;16.72;100.00
6500;BME280;3283;52.330;9.772;2022-08-21T02:40:21;100858.22;;;16.66;100.00
6500;BME280;3283;52.330;9.772;2022-08-21T02:42:46;100859.13;;;16.65;100.00
6500;BME280;3283;52.330;9.772;2022-08-21T02:45:13;100857.41;;;16.63;100.00
6500;BME280;3283;52.330;9.772;2022-08-21T02:47:40;100860.53;;;16.51;100.00
6500;BME280;3283;52.330;9.772;2022-08-21T02:50:11;100863.47;;;16.41;100.00
6500;BME280;3283;52.330;9.772;2022-08-21T02:52:37;100848.38;;;16.42;100.00
6500;BME280;3283;52.330;9.772;2022-08-21T02:55:02;100849.31;;;16.41;100.00
6500;BME280;3283;52.330;9.772;2022-08-21T02:57:28;100850.28;;;16.38;100.00
6500;BME280;3283;52.330;9.772;2022-08-21T02:59:53;100848.69;;;16.33;100.00
6500;BME280;3283;52.330;9.772;2022-08-21T03:02:19;100854.31;;;16.24;100.00
6500;BME280;3283;52.330;9.772;2022-08-21T03:04:46;100846.44;;;16.20;100.00
6500;BME280;3283;52.330;9.772;2022-08-21T03:07:12;100851.81;;;16.19;100.00
6500;BME280;3283;52.330;9.772;2022-08-21T03:09:37;100850.19;;;16.15;100.00
6500;BME280;3283;52.330;9.772;2022-08-21T03:12:02;100846.00;;;16.06;100.00
6500;BME280;3283;52.330;9.772;2022-08-21T03:14:29;100841.88;;;15.98;100.00
6500;BME280;3283;52.330;9.772;2022-08-21T03:16:54;100852.34;;;16.02;100.00
6500;BME280;3283;52.330;9.772;2022-08-21T03:19:19;100848.09;;;15.97;100.00
6500;BME280;3283;52.330;9.772;2022-08-21T03:21:45;100844.44;;;16.01;100.00
6500;BME280;3283;52.330;9.772;2022-08-21T03:24:11;100851.56;;;15.99;100.00
6500;BME280;3283;52.330;9.772;2022-08-21T03:26:37;100851.56;;;15.99;100.00
6500;BME280;3283;52.330;9.772;2022-08-21T03:29:02;100853.16;;;16.04;100.00
6500;BME280;3283;52.330;9.772;2022-08-21T03:31:28;100851.50;;;16.02;100.00
6500;BME280;3283;52.330;9.772;2022-08-21T03:33:56;100854.22;;;15.99;100.00
6500;BME280;3283;52.330;9.772;2022-08-21T03:36:22;100856.88;;;15.99;100.00
6500;BME280;3283;52.330;9.772;2022-08-21T03:38:48;100843.03;;;15.89;100.00
6500;BME280;3283;52.330;9.772;2022-08-21T03:41:13;100844.78;;;15.90;100.00
6500;BME280;3283;52.330;9.772;2022-08-21T03:43:39;100852.59;;;15.95;100.00
6500;BME280;3283;52.330;9.772;2022-08-21T03:46:06;100843.22;;;15.83;100.00
6500;BME280;3283;52.330;9.772;2022-08-21T03:48:32;100854.81;;;15.80;100.00
6500;BME280;3283;52.330;9.772;2022-08-21T03:50:58;100849.22;;;15.89;100.00
6500;BME280;3283;52.330;9.772;2022-08-21T03:53:23;100842.56;;;16.04;100.00
6500;BME280;3283;52.330;9.772;2022-08-21T03:55:51;100853.34;;;16.26;100.00
6500;BME280;3283;52.330;9.772;2022-08-21T03:58:19;100846.03;;;16.33;100.00
6500;BME280;3283;52.330;9.772;2022-08-21T04:00:49;100849.56;;;16.33;100.00
6500;BME280;3283;52.330;9.772;2022-08-21T04:03:15;100848.50;;;16.39;100.00
6500;BME280;3283;52.330;9.772;2022-08-21T04:05:41;100854.41;;;16.47;100.00
6500;BME280;3283;52.330;9.772;2022-08-21T04:08:06;100859.50;;;16.28;100.00
6500;BME280;3283;52.330;9.772;2022-08-21T04:10:35;100859.56;;;16.25;100.00
6500;BME280;3283;52.330;9.772;2022-08-21T04:13:01;100867.22;;;16.34;100.00
6500;BME280;3283;52.330;9.772;2022-08-21T04:15:27;100857.88;;;16.49;100.00
6500;BME280;3283;52.330;9.772;2022-08-21T04:17:52;100856.81;;;16.55;100.00
6500;BME280;3283;52.330;9.772;2022-08-21T04:20:19;100853.97;;;16.61;100.00
6500;BME280;3283;52.330;9.772;2022-08-21T04:22:45;100857.53;;;16.60;100.00
6500;BME280;3283;52.330;9.772;2022-08-21T04:25:12;100859.47;;;16.55;100.00
6500;BME280;3283;52.330;9.772;2022-08-21T04:27:38;100863.72;;;16.60;100.00
6500;BME280;3283;52.330;9.772;2022-08-21T04:30:05;100872.25;;;16.71;100.00
6500;BME280;3283;52.330;9.772;2022-08-21T04:32:31;100865.13;;;16.72;100.00
6500;BME280;3283;52.330;9.772;2022-08-21T04:35:03;100864.31;;;16.70;100.00
6500;BME280;3283;52.330;9.772;2022-08-21T04:37:30;100863.44;;;16.69;100.00
6500;BME280;3283;52.330;9.772;2022-08-21T04:39:56;100873.13;;;16.72;100.00
6500;BME280;3283;52.330;9.772;2022-08-21T04:42:24;100867.16;;;16.64;100.00
6500;BME280;3283;52.330;9.772;2022-08-21T04:44:50;100864.22;;;16.73;100.00
6500;BME280;3283;52.330;9.772;2022-08-21T04:47:15;100871.91;;;16.81;100.00
6500;BME280;3283;52.330;9.772;2022-08-21T04:49:42;100863.34;;;16.72;100.00
6500;BME280;3283;52.330;9.772;2022-08-21T04:52:08;100873.84;;;16.75;100.00
6500;BME280;3283;52.330;9.772;2022-08-21T04:54:34;100867.59;;;16.78;100.00
6500;BME280;3283;52.330;9.772;2022-08-21T04:57:02;100867.97;;;16.92;100.00
6500;BME280;3283;52.330;9.772;2022-08-21T04:59:33;100882.22;;;16.90;100.00
6500;BME280;3283;52.330;9.772;2022-08-21T05:02:01;100863.88;;;16.82;100.00
6500;BME280;3283;52.330;9.772;2022-08-21T05:04:29;100871.50;;;16.93;100.00
6500;BME280;3283;52.330;9.772;2022-08-21T05:06:57;100865.59;;;16.85;100.00
6500;BME280;3283;52.330;9.772;2022-08-21T05:09:25;100862.38;;;16.75;100.00
6500;BME280;3283;52.330;9.772;2022-08-21T05:11:51;100864.75;;;16.83;100.00
6500;BME280;3283;52.330;9.772;2022-08-21T05:14:19;100870.63;;;16.92;100.00
6500;BME280;3283;52.330;9.772;2022-08-21T05:16:45;100880.69;;;16.83;100.00
6500;BME280;3283;52.330;9.772;2022-08-21T05:19:10;100877.63;;;16.68;100.00
6500;BME280;3283;52.330;9.772;2022-08-21T05:21:40;100877.50;;;16.73;100.00
6500;BME280;3283;52.330;9.772;2022-08-21T05:24:06;100888.53;;;16.87;100.00
6500;BME280;3283;52.330;9.772;2022-08-21T05:26:32;100884.66;;;16.96;100.00
6500;BME280;3283;52.330;9.772;2022-08-21T05:28:58;100888.75;;;17.06;100.00
6500;BME280;3283;52.330;9.772;2022-08-21T05:31:23;100897.59;;;17.07;100.00
6500;BME280;3283;52.330;9.772;2022-08-21T05:33:49;100888.56;;;17.11;100.00
6500;BME280;3283;52.330;9.772;2022-08-21T05:36:14;100885.50;;;17.23;100.00
6500;BME280;3283;52.330;9.772;2022-08-21T05:38:40;100891.97;;;17.39;100.00
6500;BME280;3283;52.330;9.772;2022-08-21T05:41:06;100882.03;;;17.44;100.00
6500;BME280;3283;52.330;9.772;2022-08-21T05:43:32;100890.53;;;17.54;100.00
6500;BME280;3283;52.330;9.772;2022-08-21T05:46:04;100890.53;;;17.54;100.00
6500;BME280;3283;52.330;9.772;2022-08-21T05:48:31;100890.38;;;17.58;100.00
6500;BME280;3283;52.330;9.772;2022-08-21T05:50:57;100898.94;;;17.67;100.00
6500;BME280;3283;52.330;9.772;2022-08-21T05:53:24;100895.06;;;17.77;100.00
6500;BME280;3283;52.330;9.772;2022-08-21T05:55:50;100892.03;;;17.86;100.00
6500;BME280;3283;52.330;9.772;2022-08-21T05:58:19;100887.97;;;17.99;99.99
6500;BME280;3283;52.330;9.772;2022-08-21T06:00:46;100888.19;;;17.93;99.34
6500;BME280;3283;52.330;9.772;2022-08-21T06:03:26;100889.44;;;17.84;99.65
6500;BME280;3283;52.330;9.772;2022-08-21T06:05:52;100893.41;;;17.73;100.00
6500;BME280;3283;52.330;9.772;2022-08-21T06:08:19;100890.63;;;17.76;100.00
6500;BME280;3283;52.330;9.772;2022-08-21T06:10:46;100915.66;;;17.72;100.00
6500;BME280;3283;52.330;9.772;2022-08-21T06:13:13;100910.88;;;17.56;100.00
6500;BME280;3283;52.330;9.772;2022-08-21T06:15:39;100907.91;;;17.64;100.00
6500;BME280;3283;52.330;9.772;2022-08-21T06:18:05;100911.81;;;17.79;100.00
6500;BME280;3283;52.330;9.772;2022-08-21T06:20:30;100914.13;;;17.88;100.00
6500;BME280;3283;52.330;9.772;2022-08-21T06:22:57;100907.72;;;18.16;100.00
6500;BME280;3283;52.330;9.772;2022-08-21T06:25:22;100907.41;;;18.23;100.00
6500;BME280;3283;52.330;9.772;2022-08-21T06:27:48;100908.19;;;18.27;100.00
6500;BME280;3283;52.330;9.772;2022-08-21T06:30:14;100902.97;;;18.24;100.00
6500;BME280;3283;52.330;9.772;2022-08-21T06:32:39;100909.34;;;18.20;100.00
6500;BME280;3283;52.330;9.772;2022-08-21T06:35:06;100906.44;;;18.26;100.00
6500;BME280;3283;52.330;9.772;2022-08-21T06:37:32;100909.03;;;18.27;100.00
6500;BME280;3283;52.330;9.772;2022-08-21T06:39:58;100912.94;;;18.19;100.00
6500;BME280;3283;52.330;9.772;2022-08-21T06:42:23;100907.63;;;18.19;100.00
6500;BME280;3283;52.330;9.772;2022-08-21T06:44:48;100909.47;;;18.17;100.00
6500;BME280;3283;52.330;9.772;2022-08-21T06:47:14;100912.13;;;18.17;100.00
6500;BME280;3283;52.330;9.772;2022-08-21T06:49:39;100911.88;;;18.23;100.00
6500;BME280;3283;52.330;9.772;2022-08-21T06:52:11;100914.72;;;18.18;100.00
6500;BME280;3283;52.330;9.772;2022-08-21T06:54:38;100911.63;;;18.29;100.00
6500;BME280;3283;52.330;9.772;2022-08-21T06:57:03;100909.91;;;18.50;100.00
6500;BME280;3283;52.330;9.772;2022-08-21T06:59:30;100903.72;;;18.71;100.00
6500;BME280;3283;52.330;9.772;2022-08-21T07:01:55;100896.19;;;19.01;100.00
6500;BME280;3283;52.330;9.772;2022-08-21T07:04:21;100897.06;;;19.22;97.65
6500;BME280;3283;52.330;9.772;2022-08-21T07:06:46;100897.22;;;19.38;96.81
6500;BME280;3283;52.330;9.772;2022-08-21T07:09:12;100902.81;;;19.52;96.33
6500;BME280;3283;52.330;9.772;2022-08-21T07:11:37;100892.47;;;19.65;96.13
6500;BME280;3283;52.330;9.772;2022-08-21T07:14:04;100879.16;;;19.84;94.59
6500;BME280;3283;52.330;9.772;2022-08-21T07:16:30;100889.59;;;20.07;92.80
6500;BME280;3283;52.330;9.772;2022-08-21T07:18:55;100888.56;;;20.28;91.12
6500;BME280;3283;52.330;9.772;2022-08-21T07:21:21;100885.50;;;20.36;90.38
6500;BME280;3283;52.330;9.772;2022-08-21T07:23:49;100890.28;;;20.29;89.25
6500;BME280;3283;52.330;9.772;2022-08-21T07:26:17;100889.59;;;20.45;88.71
6500;BME280;3283;52.330;9.772;2022-08-21T07:28:43;100882.03;;;20.53;86.76
6500;BME280;3283;52.330;9.772;2022-08-21T07:31:10;100881.09;;;20.71;86.10
6500;BME280;3283;52.330;9.772;2022-08-21T07:33:35;100877.97;;;20.98;86.70
6500;BME280;3283;52.330;9.772;2022-08-21T07:36:02;100875.19;;;21.17;83.35
6500;BME280;3283;52.330;9.772;2022-08-21T07:38:28;100874.59;;;21.29;83.09
6500;BME280;3283;52.330;9.772;2022-08-21T07:40:55;100874.19;;;21.52;81.70
6500;BME280;3283;52.330;9.772;2022-08-21T07:43:22;100869.47;;;21.57;79.33
6500;BME280;3283;52.330;9.772;2022-08-21T07:45:48;100874.56;;;21.62;79.45
6500;BME280;3283;52.330;9.772;2022-08-21T07:48:15;100870.34;;;21.74;79.62
6500;BME280;3283;52.330;9.772;2022-08-21T07:50:41;100865.75;;;21.91;78.27
6500;BME280;3283;52.330;9.772;2022-08-21T07:53:07;100873.56;;;21.96;76.34
6500;BME280;3283;52.330;9.772;2022-08-21T07:55:32;100859.72;;;21.72;73.28
6500;BME280;3283;52.330;9.772;2022-08-21T07:57:58;100860.72;;;21.70;72.08
6500;BME280;3283;52.330;9.772;2022-08-21T08:00:25;100856.31;;;21.69;71.29
6500;BME280;3283;52.330;9.772;2022-08-21T08:02:51;100863.25;;;21.57;71.37
6500;BME280;3283;52.330;9.772;2022-08-21T08:05:25;100855.88;;;21.60;70.65
6500;BME280;3283;52.330;9.772;2022-08-21T08:07:51;100855.78;;;21.62;70.13
6500;BME280;3283;52.330;9.772;2022-08-21T08:10:17;100862.19;;;21.59;69.36
6500;BME280;3283;52.330;9.772;2022-08-21T08:12:44;100858.84;;;21.72;69.17
6500;BME280;3283;52.330;9.772;2022-08-21T08:15:13;100852.25;;;21.77;68.43
6500;BME280;3283;52.330;9.772;2022-08-21T08:17:39;100855.50;;;22.00;69.62
6500;BME280;3283;52.330;9.772;2022-08-21T08:20:06;100851.78;;;22.18;69.03
6500;BME280;3283;52.330;9.772;2022-08-21T08:22:34;100848.97;;;22.51;68.98
6500;BME280;3283;52.330;9.772;2022-08-21T08:25:00;100849.81;;;22.52;66.21
6500;BME280;3283;52.330;9.772;2022-08-21T08:27:26;100855.50;;;22.61;66.65
6500;BME280;3283;52.330;9.772;2022-08-21T08:29:52;100843.75;;;22.64;65.80
6500;BME280;3283;52.330;9.772;2022-08-21T08:32:18;100855.44;;;22.63;65.62
6500;BME280;3283;52.330;9.772;2022-08-21T08:34:44;100849.13;;;22.48;66.18
6500;BME280;3283;52.330;9.772;2022-08-21T08:37:10;100853.13;;;22.41;66.05
6500;BME280;3283;52.330;9.772;2022-08-21T08:39:36;100851.50;;;22.38;66.30
6500;BME280;3283;52.330;9.772;2022-08-21T08:44:35;100845.63;;;22.32;66.25
6500;BME280;3283;52.330;9.772;2022-08-21T08:47:01;100844.66;;;22.48;66.10
6500;BME280;3283;52.330;9.772;2022-08-21T08:49:45;100838.97;;;22.83;65.85
6500;BME280;3283;52.330;9.772;2022-08-21T08:52:24;100840.81;;;23.13;64.40
6500;BME280;3283;52.330;9.772;2022-08-21T08:55:09;100839.16;;;23.24;65.17
6500;BME280;3283;52.330;9.772;2022-08-21T08:57:38;100842.31;;;23.45;64.23
6500;BME280;3283;52.330;9.772;2022-08-21T09:00:09;100838.09;;;23.84;64.00
6500;BME280;3283;52.330;9.772;2022-08-21T09:02:38;100843.28;;;23.73;62.90
6500;BME280;3283;52.330;9.772;2022-08-21T09:05:05;100840.50;;;23.32;62.57
6500;BME280;3283;52.330;9.772;2022-08-21T09:07:46;100826.59;;;23.39;62.28
6500;BME280;3283;52.330;9.772;2022-08-21T09:11:01;100840.81;;;23.41;62.24
6500;BME280;3283;52.330;9.772;2022-08-21T09:16:28;100829.47;;;23.36;63.29
6500;BME280;3283;52.330;9.772;2022-08-21T09:19:03;100831.88;;;23.83;62.94
6500;BME280;3283;52.330;9.772;2022-08-21T09:24:42;100827.16;;;23.73;62.49
6500;BME280;3283;52.330;9.772;2022-08-21T09:29:37;100824.56;;;23.57;61.47
6500;BME280;3283;52.330;9.772;2022-08-21T09:32:21;100831.03;;;23.69;62.52
6500;BME280;3283;52.330;9.772;2022-08-21T09:37:49;100819.66;;;23.92;60.55
6500;BME280;3283;52.330;9.772;2022-08-21T09:40:40;100827.91;;;24.16;62.17
6500;BME280;3283;52.330;9.772;2022-08-21T09:45:32;100824.69;;;24.38;59.75
6500;BME280;3283;52.330;9.772;2022-08-21T09:48:23;100830.09;;;24.24;60.93
6500;BME280;3283;52.330;9.772;2022-08-21T09:50:51;100824.81;;;23.95;61.45
6500;BME280;3283;52.330;9.772;2022-08-21T09:53:26;100821.09;;;24.25;60.44
6500;BME280;3283;52.330;9.772;2022-08-21T09:58:41;100816.09;;;23.92;60.89
6500;BME280;3283;52.330;9.772;2022-08-21T10:01:16;100819.56;;;23.79;61.32
6500;BME280;3283;52.330;9.772;2022-08-21T10:03:44;100817.81;;;24.20;61.19
6500;BME280;3283;52.330;9.772;2022-08-21T10:06:10;100810.41;;;24.50;61.10
6500;BME280;3283;52.330;9.772;2022-08-21T10:08:45;100812.31;;;24.35;59.39
6500;BME280;3283;52.330;9.772;2022-08-21T10:11:14;100813.59;;;24.16;59.50
6500;BME280;3283;52.330;9.772;2022-08-21T10:14:02;100803.81;;;24.42;59.71
6500;BME280;3283;52.330;9.772;2022-08-21T10:16:42;100807.41;;;24.28;59.41
6500;BME280;3283;52.330;9.772;2022-08-21T10:19:52;100805.69;;;24.66;59.46
6500;BME280;3283;52.330;9.772;2022-08-21T10:25:06;100790.09;;;24.84;57.80
6500;BME280;3283;52.330;9.772;2022-08-21T10:36:22;100798.75;;;25.28;54.10
6500;BME280;3283;52.330;9.772;2022-08-21T10:42:09;100804.41;;;25.61;54.51
6500;BME280;3283;52.330;9.772;2022-08-21T10:47:49;100787.78;;;25.67;55.92
6500;BME280;3283;52.330;9.772;2022-08-21T10:53:09;100788.38;;;25.47;55.33
6500;BME280;3283;52.330;9.772;2022-08-21T10:55:44;100783.75;;;25.86;53.29
6500;BME280;3283;52.330;9.772;2022-08-21T10:58:22;100785.66;;;25.60;52.21
6500;BME280;3283;52.330;9.772;2022-08-21T11:00:58;100774.91;;;25.71;52.58
6500;BME280;3283;52.330;9.772;2022-08-21T11:03:34;100779.84;;;25.90;52.87
6500;BME280;3283;52.330;9.772;2022-08-21T11:08:44;100788.50;;;25.45;52.48
6500;BME280;3283;52.330;9.772;2022-08-21T11:11:12;100786.22;;;25.52;52.35
6500;BME280;3283;52.330;9.772;2022-08-21T11:13:59;100781.38;;;25.44;54.07
6500;BME280;3283;52.330;9.772;2022-08-21T11:16:45;100784.81;;;25.46;54.60
6500;BME280;3283;52.330;9.772;2022-08-21T11:19:31;100788.09;;;25.63;54.08
6500;BME280;3283;52.330;9.772;2022-08-21T11:25:03;100790.47;;;26.04;53.34
6500;BME280;3283;52.330;9.772;2022-08-21T11:28:03;100792.19;;;25.68;52.84
6500;BME280;3283;52.330;9.772;2022-08-21T11:33:49;100781.28;;;25.83;52.94
6500;BME280;3283;52.330;9.772;2022-08-21T11:45:10;100780.59;;;26.40;52.15
6500;BME280;3283;52.330;9.772;2022-08-21T11:47:56;100772.84;;;26.11;52.17
6500;BME280;3283;52.330;9.772;2022-08-21T11:50:30;100771.06;;;25.99;52.29
6500;BME280;3283;52.330;9.772;2022-08-21T11:53:01;100772.66;;;26.25;52.29
6500;BME280;3283;52.330;9.772;2022-08-21T11:58:17;100772.81;;;26.35;51.65
6500;BME280;3283;52.330;9.772;2022-08-21T12:03:15;100763.75;;;26.01;52.54
6500;BME280;3283;52.330;9.772;2022-08-21T12:05:52;100771.88;;;26.12;52.47
6500;BME280;3283;52.330;9.772;2022-08-21T12:08:31;100779.19;;;26.58;51.95
6500;BME280;3283;52.330;9.772;2022-08-21T12:13:40;100763.91;;;26.81;50.61
6500;BME280;3283;52.330;9.772;2022-08-21T12:16:11;100753.16;;;26.22;51.25
6500;BME280;3283;52.330;9.772;2022-08-21T12:18:37;100770.44;;;26.19;51.45
6500;BME280;3283;52.330;9.772;2022-08-21T12:21:23;100766.72;;;26.09;51.81
6500;BME280;3283;52.330;9.772;2022-08-21T12:26:56;100763.50;;;25.31;52.61
6500;BME280;3283;52.330;9.772;2022-08-21T12:29:32;100772.31;;;25.45;52.78
6500;BME280;3283;52.330;9.772;2022-08-21T12:34:37;100754.59;;;26.15;51.30
6500;BME280;3283;52.330;9.772;2022-08-21T12:39:44;100759.41;;;26.46;51.83
6500;BME280;3283;52.330;9.772;2022-08-21T12:42:41;100752.56;;;25.94;52.80
6500;BME280;3283;52.330;9.772;2022-08-21T12:47:51;100749.16;;;26.04;52.65
6500;BME280;3283;52.330;9.772;2022-08-21T12:50:29;100749.75;;;26.66;52.45
6500;BME280;3283;52.330;9.772;2022-08-21T12:55:42;100736.72;;;26.60;51.46
6500;BME280;3283;52.330;9.772;2022-08-21T12:58:23;100741.09;;;26.50;52.23
6500;BME280;3283;52.330;9.772;2022-08-21T13:00:59;100746.13;;;26.08;52.93
6500;BME280;3283;52.330;9.772;2022-08-21T13:03:26;100742.16;;;25.64;53.53
6500;BME280;3283;52.330;9.772;2022-08-21T13:05:53;100740.16;;;25.55;53.29
6500;BME280;3283;52.330;9.772;2022-08-21T13:08:21;100741.38;;;25.88;52.61
6500;BME280;3283;52.330;9.772;2022-08-21T13:10:49;100739.88;;;26.08;51.89
6500;BME280;3283;52.330;9.772;2022-08-21T13:13:24;100744.91;;;26.12;52.29
6500;BME280;3283;52.330;9.772;2022-08-21T13:15:57;100744.91;;;26.12;51.91
6500;BME280;3283;52.330;9.772;2022-08-21T13:18:26;100747.19;;;26.06;51.91
6500;BME280;3283;52.330;9.772;2022-08-21T13:21:11;100749.03;;;26.05;52.07
6500;BME280;3283;52.330;9.772;2022-08-21T13:23:38;100747.06;;;26.07;52.26
6500;BME280;3283;52.330;9.772;2022-08-21T13:26:19;100742.19;;;26.12;51.97
6500;BME280;3283;52.330;9.772;2022-08-21T13:28:45;100731.25;;;26.38;51.56
6500;BME280;3283;52.330;9.772;2022-08-21T13:31:16;100736.81;;;26.47;51.79
6500;BME280;3283;52.330;9.772;2022-08-21T13:33:42;100741.78;;;26.29;51.89
6500;BME280;3283;52.330;9.772;2022-08-21T13:36:18;100744.28;;;25.85;52.61
6500;BME280;3283;52.330;9.772;2022-08-21T13:38:46;100738.31;;;25.92;52.12
6500;BME280;3283;52.330;9.772;2022-08-21T13:41:30;100733.63;;;26.18;51.96
6500;BME280;3283;52.330;9.772;2022-08-21T13:44:23;100736.00;;;26.23;51.76
6500;BME280;3283;52.330;9.772;2022-08-21T13:46:52;100727.13;;;26.10;51.43
6500;BME280;3283;52.330;9.772;2022-08-21T13:49:20;100738.16;;;25.70;51.91
6500;BME280;3283;52.330;9.772;2022-08-21T13:51:48;100742.53;;;25.60;52.72
6500;BME280;3283;52.330;9.772;2022-08-21T13:54:39;100739.53;;;25.52;52.85
6500;BME280;3283;52.330;9.772;2022-08-21T13:57:19;100736.63;;;25.79;53.02
6500;BME280;3283;52.330;9.772;2022-08-21T13:59:45;100720.88;;;26.20;51.81
6500;BME280;3283;52.330;9.772;2022-08-21T14:02:16;100723.34;;;26.70;50.87
6500;BME280;3283;52.330;9.772;2022-08-21T14:04:58;100729.09;;;26.54;50.59
6500;BME280;3283;52.330;9.772;2022-08-21T14:07:35;100735.22;;;26.21;51.89
6500;BME280;3283;52.330;9.772;2022-08-21T14:10:04;100734.63;;;25.93;51.41
6500;BME280;3283;52.330;9.772;2022-08-21T14:12:41;100731.53;;;26.11;52.50
6500;BME280;3283;52.330;9.772;2022-08-21T14:15:08;100730.16;;;26.05;51.68
6500;BME280;3283;52.330;9.772;2022-08-21T14:17:38;100733.59;;;26.07;51.40
6500;BME280;3283;52.330;9.772;2022-08-21T14:20:13;100723.09;;;26.15;51.45
6500;BME280;3283;52.330;9.772;2022-08-21T14:22:50;100727.44;;;26.29;50.67
6500;BME280;3283;52.330;9.772;2022-08-21T14:30:32;100724.25;;;26.81;49.54
6500;BME280;3283;52.330;9.772;2022-08-21T14:32:58;100728.53;;;26.73;50.16
6500;BME280;3283;52.330;9.772;2022-08-21T14:35:24;100726.16;;;26.46;50.26
6500;BME280;3283;52.330;9.772;2022-08-21T14:37:51;100705.09;;;26.27;50.71
6500;BME280;3283;52.330;9.772;2022-08-21T14:40:17;100725.88;;;26.02;51.08
6500;BME280;3283;52.330;9.772;2022-08-21T14:42:44;100725.75;;;26.04;51.21
6500;BME280;3283;52.330;9.772;2022-08-21T14:45:18;100714.22;;;26.02;50.29